sensor_id;sensor_type;location;lat;lon;timestamp;temperature;humidity
46319;DHT22;32042;50.916;2.926;2022-09-03T00:07:05;18.40;99.90
46319;DHT22;32042;50.916;2.926;2022-09-03T00:10:02;18.40;99.90
46319;DHT22;32042;50.916;2.926;2022-09-03T00:12:32;18.40;99.90
46319;DHT22;32042;50.916;2.926;2022-09-03T00:17:41;18.40;99.90
46319;DHT22;32042;50.916;2.926;2022-09-03T00:20:19;18.40;99.90
46319;DHT22;32042;50.916;2.926;2022-09-03T00:22:49;18.40;99.90
46319;DHT22;32042;50.916;2.926;2022-09-03T00:25:51;18.40;99.90
46319;DHT22;32042;50.916;2.926;2022-09-03T00:28:44;18.50;99.90
46319;DHT22;32042;50.916;2.926;2022-09-03T00:31:35;18.50;99.90
46319;DHT22;32042;50.916;2.926;2022-09-03T00:34:14;18.50;99.90
46319;DHT22;32042;50.916;2.926;2022-09-03T00:36:44;18.40;99.90
46319;DHT22;32042;50.916;2.926;2022-09-03T00:39:22;18.40;99.90
46319;DHT22;32042;50.916;2.926;2022-09-03T00:47:41;18.40;99.90
46319;DHT22;32042;50.916;2.926;2022-09-03T00:50:34;18.40;99.90
46319;DHT22;32042;50.916;2.926;2022-09-03T00:58:34;18.30;99.90
46319;DHT22;32042;50.916;2.926;2022-09-03T01:01:09;18.30;99.90
46319;DHT22;32042;50.916;2.926;2022-09-03T01:09:06;18.30;99.90
46319;DHT22;32042;50.916;2.926;2022-09-03T01:12:00;18.30;99.90
46319;DHT22;32042;50.916;2.926;2022-09-03T01:48:20;18.20;99.90
46319;DHT22;32042;50.916;2.926;2022-09-03T01:59:14;18.30;99.90
46319;DHT22;32042;50.916;2.926;2022-09-03T02:01:52;18.30;99.90
46319;DHT22;32042;50.916;2.926;2022-09-03T02:04:26;18.30;99.90
46319;DHT22;32042;50.916;2.926;2022-09-03T02:06:55;18.30;99.90
46319;DHT22;32042;50.916;2.926;2022-09-03T02:09:22;18.30;99.90
46319;DHT22;32042;50.916;2.926;2022-09-03T02:12:02;18.20;99.90
46319;DHT22;32042;50.916;2.926;2022-09-03T02:14:31;18.20;99.90
46319;DHT22;32042;50.916;2.926;2022-09-03T02:16:59;18.10;99.90
46319;DHT22;32042;50.916;2.926;2022-09-03T02:19:26;18.10;99.90
46319;DHT22;32042;50.916;2.926;2022-09-03T02:21:54;18.10;99.90
46319;DHT22;32042;50.916;2.926;2022-09-03T02:24:21;18.10;99.90
46319;DHT22;32042;50.916;2.926;2022-09-03T02:26:47;18.10;99.90
46319;DHT22;32042;50.916;2.926;2022-09-03T02:29:16;18.00;99.90
46319;DHT22;32042;50.916;2.926;2022-09-03T02:31:43;17.90;99.90
46319;DHT22;32042;50.916;2.926;2022-09-03T02:34:10;17.90;99.90
46319;DHT22;32042;50.916;2.926;2022-09-03T02:36:43;17.90;99.90
46319;DHT22;32042;50.916;2.926;2022-09-03T02:39:14;17.90;99.90
46319;DHT22;32042;50.916;2.926;2022-09-03T02:41:41;17.90;99.90
46319;DHT22;32042;50.916;2.926;2022-09-03T02:47:00;17.80;99.90
46319;DHT22;32042;50.916;2.926;2022-09-03T02:49:28;17.80;99.90
46319;DHT22;32042;50.916;2.926;2022-09-03T02:52:00;17.80;99.90
46319;DHT22;32042;50.916;2.926;2022-09-03T02:54:31;17.80;99.90
46319;DHT22;32042;50.916;2.926;2022-09-03T02:56:58;17.80;99.90
46319;DHT22;32042;50.916;2.926;2022-09-03T02:59:24;17.80;99.90
46319;DHT22;32042;50.916;2.926;2022-09-03T03:01:53;17.80;99.90
46319;DHT22;32042;50.916;2.926;2022-09-03T03:04:19;17.80;99.90
46319;DHT22;32042;50.916;2.926;2022-09-03T03:06:45;17.80;99.90
46319;DHT22;32042;50.916;2.926;2022-09-03T03:09:11;17.80;99.90
46319;DHT22;32042;50.916;2.926;2022-09-03T03:11:37;17.80;99.90
46319;DHT22;32042;50.916;2.926;2022-09-03T03:14:03;17.80;99.90
46319;DHT22;32042;50.916;2.926;2022-09-03T03:16:28;17.80;99.90
46319;DHT22;32042;50.916;2.926;2022-09-03T03:18:57;17.70;99.90
46319;DHT22;32042;50.916;2.926;2022-09-03T03:21:24;17.70;99.90
46319;DHT22;32042;50.916;2.926;2022-09-03T03:23:50;17.70;99.90
46319;DHT22;32042;50.916;2.926;2022-09-03T03:26:18;17.60;99.90
46319;DHT22;32042;50.916;2.926;2022-09-03T03:28:49;17.60;99.90
46319;DHT22;32042;50.916;2.926;2022-09-03T03:31:17;17.60;99.90
46319;DHT22;32042;50.916;2.926;2022-09-03T03:34:10;17.50;99.90
46319;DHT22;32042;50.916;2.926;2022-09-03T03:36:35;17.50;99.90
46319;DHT22;32042;50.916;2.926;2022-09-03T03:39:01;17.50;99.90
46319;DHT22;32042;50.916;2.926;2022-09-03T03:41:29;17.50;99.90
46319;DHT22;32042;50.916;2.926;2022-09-03T03:43:57;17.50;99.90
46319;DHT22;32042;50.916;2.926;2022-09-03T03:46:24;17.50;99.90
46319;DHT22;32042;50.916;2.926;2022-09-03T03:48:52;17.60;99.90
46319;DHT22;32042;50.916;2.926;2022-09-03T03:51:19;17.50;99.90
46319;DHT22;32042;50.916;2.926;2022-09-03T03:53:45;17.40;99.90
46319;DHT22;32042;50.916;2.926;2022-09-03T03:56:12;17.40;99.90
46319;DHT22;32042;50.916;2.926;2022-09-03T03:58:39;17.50;99.90
46319;DHT22;32042;50.916;2.926;2022-09-03T04:03:34;17.40;99.90
46319;DHT22;32042;50.916;2.926;2022-09-03T04:06:00;17.30;99.90
46319;DHT22;32042;50.916;2.926;2022-09-03T04:08:28;17.30;99.90
46319;DHT22;32042;50.916;2.926;2022-09-03T04:10:58;17.40;99.90
46319;DHT22;32042;50.916;2.926;2022-09-03T04:13:24;17.30;99.90
46319;DHT22;32042;50.916;2.926;2022-09-03T04:16:02;17.40;99.90
46319;DHT22;32042;50.916;2.926;2022-09-03T04:18:29;17.40;99.90
46319;DHT22;32042;50.916;2.926;2022-09-03T04:21:03;17.40;99.90
46319;DHT22;32042;50.916;2.926;2022-09-03T04:23:31;17.40;99.90
46319;DHT22;32042;50.916;2.926;2022-09-03T04:25:57;17.30;99.90
46319;DHT22;32042;50.916;2.926;2022-09-03T04:28:23;17.30;99.90
46319;DHT22;32042;50.916;2.926;2022-09-03T04:30:49;17.30;99.90
46319;DHT22;32042;50.916;2.926;2022-09-03T04:33:14;17.30;99.90
46319;DHT22;32042;50.916;2.926;2022-09-03T04:35:40;17.30;99.90
46319;DHT22;32042;50.916;2.926;2022-09-03T04:38:07;17.30;99.90
46319;DHT22;32042;50.916;2.926;2022-09-03T04:40:33;17.30;99.90
46319;DHT22;32042;50.916;2.926;2022-09-03T04:42:58;17.30;99.90
46319;DHT22;32042;50.916;2.926;2022-09-03T04:45:25;17.30;99.90
46319;DHT22;32042;50.916;2.926;2022-09-03T04:48:04;17.30;99.90
46319;DHT22;32042;50.916;2.926;2022-09-03T04:50:31;17.20;99.90
46319;DHT22;32042;50.916;2.926;2022-09-03T04:53:02;17.20;99.90
46319;DHT22;32042;50.916;2.926;2022-09-03T04:55:36;17.20;99.90
46319;DHT22;32042;50.916;2.926;2022-09-03T04:58:03;17.20;99.90
46319;DHT22;32042;50.916;2.926;2022-09-03T05:00:29;17.20;99.90
46319;DHT22;32042;50.916;2.926;2022-09-03T05:02:55;17.20;99.90
46319;DHT22;32042;50.916;2.926;2022-09-03T05:05:21;17.20;99.90
46319;DHT22;32042;50.916;2.926;2022-09-03T05:07:46;17.20;99.90
46319;DHT22;32042;50.916;2.926;2022-09-03T05:10:13;17.10;99.90
46319;DHT22;32042;50.916;2.926;2022-09-03T05:12:45;17.10;99.90
46319;DHT22;32042;50.916;2.926;2022-09-03T05:15:12;17.10;99.90
46319;DHT22;32042;50.916;2.926;2022-09-03T05:17:38;17.10;99.90
46319;DHT22;32042;50.916;2.926;2022-09-03T05:20:05;17.10;99.90
46319;DHT22;32042;50.916;2.926;2022-09-03T05:22:34;17.10;99.90
46319;DHT22;32042;50.916;2.926;2022-09-03T05:25:00;17.10;99.90
46319;DHT22;32042;50.916;2.926;2022-09-03T05:27:26;17.10;99.90
46319;DHT22;32042;50.916;2.926;2022-09-03T05:29:51;17.10;99.90
46319;DHT22;32042;50.916;2.926;2022-09-03T05:32:17;17.20;99.90
46319;DHT22;32042;50.916;2.926;2022-09-03T05:34:43;17.20;99.90
46319;DHT22;32042;50.916;2.926;2022-09-03T05:37:09;17.30;99.90
46319;DHT22;32042;50.916;2.926;2022-09-03T05:39:36;17.30;99.90
46319;DHT22;32042;50.916;2.926;2022-09-03T05:42:01;17.40;99.90
46319;DHT22;32042;50.916;2.926;2022-09-03T05:44:27;17.40;99.90
46319;DHT22;32042;50.916;2.926;2022-09-03T05:46:53;17.40;99.90
46319;DHT22;32042;50.916;2.926;2022-09-03T05:49:19;17.50;99.90
46319;DHT22;32042;50.916;2.926;2022-09-03T05:51:45;17.50;99.90
46319;DHT22;32042;50.916;2.926;2022-09-03T05:54:11;17.50;99.90
46319;DHT22;32042;50.916;2.926;2022-09-03T05:56:38;17.60;99.90
46319;DHT22;32042;50.916;2.926;2022-09-03T05:59:08;17.60;99.90
46319;DHT22;32042;50.916;2.926;2022-09-03T06:01:39;17.60;99.90
46319;DHT22;32042;50.916;2.926;2022-09-03T06:04:12;17.70;99.90
46319;DHT22;32042;50.916;2.926;2022-09-03T06:06:40;17.70;99.90
46319;DHT22;32042;50.916;2.926;2022-09-03T06:09:14;17.70;99.90
46319;DHT22;32042;50.916;2.926;2022-09-03T06:11:42;17.70;99.90
46319;DHT22;32042;50.916;2.926;2022-09-03T06:14:10;17.70;99.90
46319;DHT22;32042;50.916;2.926;2022-09-03T06:16:44;17.80;99.90
46319;DHT22;32042;50.916;2.926;2022-09-03T06:19:11;17.80;99.90
46319;DHT22;32042;50.916;2.926;2022-09-03T06:21:42;17.80;99.90
46319;DHT22;32042;50.916;2.926;2022-09-03T06:24:15;17.80;99.90
46319;DHT22;32042;50.916;2.926;2022-09-03T06:26:41;17.80;99.90
46319;DHT22;32042;50.916;2.926;2022-09-03T06:29:07;17.80;99.90
46319;DHT22;32042;50.916;2.926;2022-09-03T06:31:33;17.90;99.90
46319;DHT22;32042;50.916;2.926;2022-09-03T06:34:00;18.00;99.90
46319;DHT22;32042;50.916;2.926;2022-09-03T06:36:26;18.00;99.90
46319;DHT22;32042;50.916;2.926;2022-09-03T06:38:54;18.10;99.90
46319;DHT22;32042;50.916;2.926;2022-09-03T06:41:22;18.10;99.90
46319;DHT22;32042;50.916;2.926;2022-09-03T06:43:57;18.20;99.90
46319;DHT22;32042;50.916;2.926;2022-09-03T06:46:36;18.30;99.90
46319;DHT22;32042;50.916;2.926;2022-09-03T06:49:03;18.40;99.90
46319;DHT22;32042;50.916;2.926;2022-09-03T06:51:31;18.40;99.90
46319;DHT22;32042;50.916;2.926;2022-09-03T06:54:05;18.50;99.90
46319;DHT22;32042;50.916;2.926;2022-09-03T06:56:31;18.50;99.90
46319;DHT22;32042;50.916;2.926;2022-09-03T06:58:59;18.40;99.90
46319;DHT22;32042;50.916;2.926;2022-09-03T07:01:29;18.50;99.90
46319;DHT22;32042;50.916;2.926;2022-09-03T07:03:57;18.50;99.90
46319;DHT22;32042;50.916;2.926;2022-09-03T07:06:25;18.60;99.90
46319;DHT22;32042;50.916;2.926;2022-09-03T07:08:52;18.60;99.90
46319;DHT22;32042;50.916;2.926;2022-09-03T07:11:20;18.60;99.90
46319;DHT22;32042;50.916;2.926;2022-09-03T07:13:49;18.70;99.90
46319;DHT22;32042;50.916;2.926;2022-09-03T07:16:18;18.70;99.90
46319;DHT22;32042;50.916;2.926;2022-09-03T07:18:45;18.70;99.90
46319;DHT22;32042;50.916;2.926;2022-09-03T07:21:16;18.70;99.90
46319;DHT22;32042;50.916;2.926;2022-09-03T07:23:43;18.70;99.90
46319;DHT22;32042;50.916;2.926;2022-09-03T07:26:17;18.80;99.90
46319;DHT22;32042;50.916;2.926;2022-09-03T07:28:44;18.90;99.90
46319;DHT22;32042;50.916;2.926;2022-09-03T07:31:22;19.00;99.90
46319;DHT22;32042;50.916;2.926;2022-09-03T07:33:53;19.00;99.90
46319;DHT22;32042;50.916;2.926;2022-09-03T07:36:24;19.10;99.90
46319;DHT22;32042;50.916;2.926;2022-09-03T07:38:49;19.20;99.90
46319;DHT22;32042;50.916;2.926;2022-09-03T07:41:15;19.30;99.90
46319;DHT22;32042;50.916;2.926;2022-09-03T07:43:45;19.30;99.90
46319;DHT22;32042;50.916;2.926;2022-09-03T07:46:20;19.30;99.90
46319;DHT22;32042;50.916;2.926;2022-09-03T07:48:50;19.50;99.90
46319;DHT22;32042;50.916;2.926;2022-09-03T07:51:18;19.50;99.90
46319;DHT22;32042;50.916;2.926;2022-09-03T07:53:45;19.50;99.90
46319;DHT22;32042;50.916;2.926;2022-09-03T07:56:12;19.60;99.90
46319;DHT22;32042;50.916;2.926;2022-09-03T07:58:39;19.70;99.90
46319;DHT22;32042;50.916;2.926;2022-09-03T08:01:10;19.80;99.90
46319;DHT22;32042;50.916;2.926;2022-09-03T08:03:36;20.00;99.90
46319;DHT22;32042;50.916;2.926;2022-09-03T08:06:04;20.10;99.90
46319;DHT22;32042;50.916;2.926;2022-09-03T08:08:32;20.20;99.90
46319;DHT22;32042;50.916;2.926;2022-09-03T08:13:44;20.50;99.90
46319;DHT22;32042;50.916;2.926;2022-09-03T08:16:11;20.60;99.90
46319;DHT22;32042;50.916;2.926;2022-09-03T08:18:37;20.70;99.90
46319;DHT22;32042;50.916;2.926;2022-09-03T08:21:12;20.80;99.90
46319;DHT22;32042;50.916;2.926;2022-09-03T08:23:41;20.90;99.90
46319;DHT22;32042;50.916;2.926;2022-09-03T08:26:08;20.90;99.90
46319;DHT22;32042;50.916;2.926;2022-09-03T08:28:35;21.00;99.90
46319;DHT22;32042;50.916;2.926;2022-09-03T08:31:13;21.10;99.90
46319;DHT22;32042;50.916;2.926;2022-09-03T08:33:41;21.10;99.90
46319;DHT22;32042;50.916;2.926;2022-09-03T08:36:13;21.20;99.90
46319;DHT22;32042;50.916;2.926;2022-09-03T08:38:40;21.30;99.90
46319;DHT22;32042;50.916;2.926;2022-09-03T08:41:13;21.40;99.90
46319;DHT22;32042;50.916;2.926;2022-09-03T08:46:56;21.50;99.90
46319;DHT22;32042;50.916;2.926;2022-09-03T08:50:06;21.50;99.90
46319;DHT22;32042;50.916;2.926;2022-09-03T08:52:46;21.50;99.90
46319;DHT22;32042;50.916;2.926;2022-09-03T08:55:24;21.60;99.90
46319;DHT22;32042;50.916;2.926;2022-09-03T08:58:07;21.70;99.90
46319;DHT22;32042;50.916;2.926;2022-09-03T09:06:31;21.80;99.90
46319;DHT22;32042;50.916;2.926;2022-09-03T09:22:39;22.20;99.90
46319;DHT22;32042;50.916;2.926;2022-09-03T09:25:11;22.10;99.90
46319;DHT22;32042;50.916;2.926;2022-09-03T09:28:02;22.10;99.90
46319;DHT22;32042;50.916;2.926;2022-09-03T09:30:30;22.20;99.90
46319;DHT22;32042;50.916;2.926;2022-09-03T09:32:56;22.30;99.90
46319;DHT22;32042;50.916;2.926;2022-09-03T09:35:22;22.40;99.90
46319;DHT22;32042;50.916;2.926;2022-09-03T09:37:53;22.40;99.90
46319;DHT22;32042;50.916;2.926;2022-09-03T09:40:43;22.30;99.90
46319;DHT22;32042;50.916;2.926;2022-09-03T09:43:18;22.30;99.90
46319;DHT22;32042;50.916;2.926;2022-09-03T09:45:51;22.20;99.90
46319;DHT22;32042;50.916;2.926;2022-09-03T09:48:31;22.10;99.90
46319;DHT22;32042;50.916;2.926;2022-09-03T09:53:47;22.40;99.90
46319;DHT22;32042;50.916;2.926;2022-09-03T09:56:24;22.50;99.90
46319;DHT22;32042;50.916;2.926;2022-09-03T09:59:07;22.60;99.90
46319;DHT22;32042;50.916;2.926;2022-09-03T10:01:38;22.80;99.90
46319;DHT22;32042;50.916;2.926;2022-09-03T10:04:22;22.90;99.90
46319;DHT22;32042;50.916;2.926;2022-09-03T10:06:56;23.00;99.90
46319;DHT22;32042;50.916;2.926;2022-09-03T10:09:33;22.90;99.90
46319;DHT22;32042;50.916;2.926;2022-09-03T10:17:27;23.10;99.90
46319;DHT22;32042;50.916;2.926;2022-09-03T10:23:17;23.30;99.90
46319;DHT22;32042;50.916;2.926;2022-09-03T10:28:27;23.70;99.90
46319;DHT22;32042;50.916;2.926;2022-09-03T10:36:33;23.80;99.90
46319;DHT22;32042;50.916;2.926;2022-09-03T10:41:57;23.70;99.90
46319;DHT22;32042;50.916;2.926;2022-09-03T11:07:41;24.70;99.90
46319;DHT22;32042;50.916;2.926;2022-09-03T11:10:24;24.80;99.90
46319;DHT22;32042;50.916;2.926;2022-09-03T11:13:14;24.60;99.90
46319;DHT22;32042;50.916;2.926;2022-09-03T11:16:10;24.70;99.90
46319;DHT22;32042;50.916;2.926;2022-09-03T11:18:43;24.80;99.90
46319;DHT22;32042;50.916;2.926;2022-09-03T11:21:13;24.80;99.90
46319;DHT22;32042;50.916;2.926;2022-09-03T11:23:43;25.20;99.90
46319;DHT22;32042;50.916;2.926;2022-09-03T11:26:12;25.40;99.90
46319;DHT22;32042;50.916;2.926;2022-09-03T11:34:43;25.80;99.90
46319;DHT22;32042;50.916;2.926;2022-09-03T11:37:22;25.80;99.90
46319;DHT22;32042;50.916;2.926;2022-09-03T11:42:26;25.60;99.90
46319;DHT22;32042;50.916;2.926;2022-09-03T11:44:59;25.60;99.90
46319;DHT22;32042;50.916;2.926;2022-09-03T11:47:41;25.60;99.90
46319;DHT22;32042;50.916;2.926;2022-09-03T11:50:18;25.90;99.90
46319;DHT22;32042;50.916;2.926;2022-09-03T11:52:46;26.20;99.90
46319;DHT22;32042;50.916;2.926;2022-09-03T11:55:27;26.20;99.90
46319;DHT22;32042;50.916;2.926;2022-09-03T11:57:55;26.10;99.90
46319;DHT22;32042;50.916;2.926;2022-09-03T12:00:21;25.90;99.90
46319;DHT22;32042;50.916;2.926;2022-09-03T12:02:56;25.90;99.90
46319;DHT22;32042;50.916;2.926;2022-09-03T12:11:32;26.20;99.90
46319;DHT22;32042;50.916;2.926;2022-09-03T12:19:34;26.90;99.90
46319;DHT22;32042;50.916;2.926;2022-09-03T12:22:02;27.00;99.90
46319;DHT22;32042;50.916;2.926;2022-09-03T12:24:28;26.80;99.90
46319;DHT22;32042;50.916;2.926;2022-09-03T12:26:57;26.80;99.90
46319;DHT22;32042;50.916;2.926;2022-09-03T12:29:29;27.00;99.90
46319;DHT22;32042;50.916;2.926;2022-09-03T12:32:06;27.30;99.90
46319;DHT22;32042;50.916;2.926;2022-09-03T12:34:32;27.10;99.90
46319;DHT22;32042;50.916;2.926;2022-09-03T12:36:58;27.20;99.90
46319;DHT22;32042;50.916;2.926;2022-09-03T12:39:25;27.40;99.90
46319;DHT22;32042;50.916;2.926;2022-09-03T12:44:43;27.10;99.90
46319;DHT22;32042;50.916;2.926;2022-09-03T12:47:15;26.90;99.90
46319;DHT22;32042;50.916;2.926;2022-09-03T12:49:55;27.10;99.90
46319;DHT22;32042;50.916;2.926;2022-09-03T12:52:26;27.20;99.90
46319;DHT22;32042;50.916;2.926;2022-09-03T12:57:45;27.20;99.90
46319;DHT22;32042;50.916;2.926;2022-09-03T13:00:15;26.90;99.90
46319;DHT22;32042;50.916;2.926;2022-09-03T13:02:55;26.90;99.90
46319;DHT22;32042;50.916;2.926;2022-09-03T13:05:32;27.10;99.90
46319;DHT22;32042;50.916;2.926;2022-09-03T13:07:59;27.50;99.90
46319;DHT22;32042;50.916;2.926;2022-09-03T13:10:36;27.60;99.90
46319;DHT22;32042;50.916;2.926;2022-09-03T13:18:51;27.60;99.90
46319;DHT22;32042;50.916;2.926;2022-09-03T13:35:05;26.80;99.90
46319;DHT22;32042;50.916;2.926;2022-09-03T13:40:10;26.70;99.90
46319;DHT22;32042;50.916;2.926;2022-09-03T13:42:43;26.50;99.90
46319;DHT22;32042;50.916;2.926;2022-09-03T13:45:26;26.50;99.90
46319;DHT22;32042;50.916;2.926;2022-09-03T13:48:10;26.50;99.90
46319;DHT22;32042;50.916;2.926;2022-09-03T13:51:20;26.40;99.90
46319;DHT22;32042;50.916;2.926;2022-09-03T13:54:02;26.30;99.90
46319;DHT22;32042;50.916;2.926;2022-09-03T14:02:15;25.70;99.90
46319;DHT22;32042;50.916;2.926;2022-09-03T14:05:05;25.60;99.90
46319;DHT22;32042;50.916;2.926;2022-09-03T14:16:26;25.80;99.90
46319;DHT22;32042;50.916;2.926;2022-09-03T14:19:05;25.70;99.90
46319;DHT22;32042;50.916;2.926;2022-09-03T14:21:49;25.60;99.90
46319;DHT22;32042;50.916;2.926;2022-09-03T14:27:04;25.70;99.90
46319;DHT22;32042;50.916;2.926;2022-09-03T14:29:35;25.60;99.90
46319;DHT22;32042;50.916;2.926;2022-09-03T14:40:12;25.80;99.90
46319;DHT22;32042;50.916;2.926;2022-09-03T14:48:19;25.90;99.90
46319;DHT22;32042;50.916;2.926;2022-09-03T14:51:09;25.90;99.90
46319;DHT22;32042;50.916;2.926;2022-09-03T14:54:05;25.90;99.90
46319;DHT22;32042;50.916;2.926;2022-09-03T14:59:13;25.90;99.90
46319;DHT22;32042;50.916;2.926;2022-09-03T15:01:42;25.90;99.90
46319;DHT22;32042;50.916;2.926;2022-09-03T15:04:37;25.80;99.90
46319;DHT22;32042;50.916;2.926;2022-09-03T15:15:00;25.90;99.90
46319;DHT22;32042;50.916;2.926;2022-09-03T15:25:45;26.50;99.90
46319;DHT22;32042;50.916;2.926;2022-09-03T15:33:49;26.60;99.90
46319;DHT22;32042;50.916;2.926;2022-09-03T15:36:23;26.60;99.90
46319;DHT22;32042;50.916;2.926;2022-09-03T15:38:57;26.30;99.90
46319;DHT22;32042;50.916;2.926;2022-09-03T15:41:45;26.20;99.90
46319;DHT22;32042;50.916;2.926;2022-09-03T15:44:15;26.10;99.90
46319;DHT22;32042;50.916;2.926;2022-09-03T15:47:07;26.20;99.90
46319;DHT22;32042;50.916;2.926;2022-09-03T15:55:10;26.30;99.90
46319;DHT22;32042;50.916;2.926;2022-09-03T16:00:58;26.10;99.90
46319;DHT22;32042;50.916;2.926;2022-09-03T16:06:44;25.60;99.90
46319;DHT22;32042;50.916;2.926;2022-09-03T16:09:26;25.50;99.90
46319;DHT22;32042;50.916;2.926;2022-09-03T16:12:35;25.10;99.90
46319;DHT22;32042;50.916;2.926;2022-09-03T16:15:09;24.90;99.90
46319;DHT22;32042;50.916;2.926;2022-09-03T16:17:38;24.60;99.90
46319;DHT22;32042;50.916;2.926;2022-09-03T16:23:00;24.40;99.90
46319;DHT22;32042;50.916;2.926;2022-09-03T16:25:55;24.40;99.90
46319;DHT22;32042;50.916;2.926;2022-09-03T16:28:38;24.30;99.90
46319;DHT22;32042;50.916;2.926;2022-09-03T16:31:34;24.10;99.90
46319;DHT22;32042;50.916;2.926;2022-09-03T16:42:39;22.80;99.90
46319;DHT22;32042;50.916;2.926;2022-09-03T16:53:14;21.30;99.90
46319;DHT22;32042;50.916;2.926;2022-09-03T16:58:20;21.20;99.90
46319;DHT22;32042;50.916;2.926;2022-09-03T17:01:12;21.10;99.90
46319;DHT22;32042;50.916;2.926;2022-09-03T17:09:26;20.80;99.90
46319;DHT22;32042;50.916;2.926;2022-09-03T17:48:54;20.40;99.90
46319;DHT22;32042;50.916;2.926;2022-09-03T17:53:55;20.40;99.90
46319;DHT22;32042;50.916;2.926;2022-09-03T17:56:24;20.40;99.90
46319;DHT22;32042;50.916;2.926;2022-09-03T17:59:01;20.40;99.90
46319;DHT22;32042;50.916;2.926;2022-09-03T18:01:32;20.50;99.90
46319;DHT22;32042;50.916;2.926;2022-09-03T18:07:29;20.40;99.90
46319;DHT22;32042;50.916;2.926;2022-09-03T18:18:42;20.50;99.90
46319;DHT22;32042;50.916;2.926;2022-09-03T18:21:19;20.60;99.90
46319;DHT22;32042;50.916;2.926;2022-09-03T18:27:32;20.60;99.90
46319;DHT22;32042;50.916;2.926;2022-09-03T18:30:19;20.50;99.90
46319;DHT22;32042;50.916;2.926;2022-09-03T18:33:03;20.60;99.90
46319;DHT22;32042;50.916;2.926;2022-09-03T18:35:47;20.50;99.90
46319;DHT22;32042;50.916;2.926;2022-09-03T18:38:37;20.50;99.90
46319;DHT22;32042;50.916;2.926;2022-09-03T18:47:39;20.40;99.90
46319;DHT22;32042;50.916;2.926;2022-09-03T18:57:25;20.20;99.90
46319;DHT22;32042;50.916;2.926;2022-09-03T19:00:13;20.20;99.90
46319;DHT22;32042;50.916;2.926;2022-09-03T19:03:38;20.10;99.90
46319;DHT22;32042;50.916;2.926;2022-09-03T19:06:43;20.10;99.90
46319;DHT22;32042;50.916;2.926;2022-09-03T19:10:23;20.10;99.90
46319;DHT22;32042;50.916;2.926;2022-09-03T19:22:08;20.30;99.90
46319;DHT22;32042;50.916;2.926;2022-09-03T19:25:04;20.20;99.90
46319;DHT22;32042;50.916;2.926;2022-09-03T19:31:01;20.20;99.90
46319;DHT22;32042;50.916;2.926;2022-09-03T19:34:13;20.20;99.90
46319;DHT22;32042;50.916;2.926;2022-09-03T19:37:07;20.20;99.90
46319;DHT22;32042;50.916;2.926;2022-09-03T19:40:31;20.20;99.90
46319;DHT22;32042;50.916;2.926;2022-09-03T19:46:48;20.20;99.90
46319;DHT22;32042;50.916;2.926;2022-09-03T19:55:30;20.20;99.90
46319;DHT22;32042;50.916;2.926;2022-09-03T19:58:22;20.20;99.90
46319;DHT22;32042;50.916;2.926;2022-09-03T20:01:08;20.20;99.90
46319;DHT22;32042;50.916;2.926;2022-09-03T20:03:55;20.20;99.90
46319;DHT22;32042;50.916;2.926;2022-09-03T20:06:41;20.20;99.90
46319;DHT22;32042;50.916;2.926;2022-09-03T20:09:33;20.20;99.90
46319;DHT22;32042;50.916;2.926;2022-09-03T20:12:20;20.20;99.90
46319;DHT22;32042;50.916;2.926;2022-09-03T20:14:47;20.20;99.90
46319;DHT22;32042;50.916;2.926;2022-09-03T20:17:32;20.10;99.90
46319;DHT22;32042;50.916;2.926;2022-09-03T20:20:31;20.00;99.90
46319;DHT22;32042;50.916;2.926;2022-09-03T20:26:00;19.90;99.90
46319;DHT22;32042;50.916;2.926;2022-09-03T20:37:30;19.90;99.90
46319;DHT22;32042;50.916;2.926;2022-09-03T20:40:25;19.90;99.90
46319;DHT22;32042;50.916;2.926;2022-09-03T20:45:31;19.90;99.90
46319;DHT22;32042;50.916;2.926;2022-09-03T20:51:05;19.70;99.90
46319;DHT22;32042;50.916;2.926;2022-09-03T20:59:24;19.70;99.90
46319;DHT22;32042;50.916;2.926;2022-09-03T21:13:39;19.50;99.90
46319;DHT22;32042;50.916;2.926;2022-09-03T21:16:14;19.40;99.90
46319;DHT22;32042;50.916;2.926;2022-09-03T21:21:50;19.40;99.90
46319;DHT22;32042;50.916;2.926;2022-09-03T21:27:03;19.40;99.90
46319;DHT22;32042;50.916;2.926;2022-09-03T21:29:41;19.40;99.90
46319;DHT22;32042;50.916;2.926;2022-09-03T21:32:19;19.40;99.90
46319;DHT22;32042;50.916;2.926;2022-09-03T21:37:19;19.40;99.90
46319;DHT22;32042;50.916;2.926;2022-09-03T21:39:54;19.30;99.90
46319;DHT22;32042;50.916;2.926;2022-09-03T21:42:36;19.40;99.90
46319;DHT22;32042;50.916;2.926;2022-09-03T21:45:13;19.40;99.90
46319;DHT22;32042;50.916;2.926;2022-09-03T21:47:47;19.40;99.90
46319;DHT22;32042;50.916;2.926;2022-09-03T21:50:21;19.40;99.90
46319;DHT22;32042;50.916;2.926;2022-09-03T21:53:10;19.40;99.90
46319;DHT22;32042;50.916;2.926;2022-09-03T22:01:11;19.40;99.90
46319;DHT22;32042;50.916;2.926;2022-09-03T22:03:40;19.40;99.90
46319;DHT22;32042;50.916;2.926;2022-09-03T22:06:28;19.50;99.90
46319;DHT22;32042;50.916;2.926;2022-09-03T22:09:38;19.50;99.90
46319;DHT22;32042;50.916;2.926;2022-09-03T22:12:31;19.50;99.90
46319;DHT22;32042;50.916;2.926;2022-09-03T22:15:00;19.50;99.90
46319;DHT22;32042;50.916;2.926;2022-09-03T22:20:09;19.40;99.90
46319;DHT22;32042;50.916;2.926;2022-09-03T22:22:51;19.40;99.90
46319;DHT22;32042;50.916;2.926;2022-09-03T22:28:11;19.30;99.90
46319;DHT22;32042;50.916;2.926;2022-09-03T22:30:49;19.20;99.90
46319;DHT22;32042;50.916;2.926;2022-09-03T22:33:29;19.20;99.90
46319;DHT22;32042;50.916;2.926;2022-09-03T22:36:02;19.30;99.90
46319;DHT22;32042;50.916;2.926;2022-09-03T22:41:08;19.30;99.90
46319;DHT22;32042;50.916;2.926;2022-09-03T22:44:00;19.20;99.90
46319;DHT22;32042;50.916;2.926;2022-09-03T22:46:41;19.20;99.90
46319;DHT22;32042;50.916;2.926;2022-09-03T22:57:23;19.20;99.90
46319;DHT22;32042;50.916;2.926;2022-09-03T23:00:04;19.20;99.90
46319;DHT22;32042;50.916;2.926;2022-09-03T23:02:31;19.20;99.90
46319;DHT22;32042;50.916;2.926;2022-09-03T23:05:32;19.20;99.90
46319;DHT22;32042;50.916;2.926;2022-09-03T23:13:32;19.20;99.90
46319;DHT22;32042;50.916;2.926;2022-09-03T23:18:47;19.10;99.90
46319;DHT22;32042;50.916;2.926;2022-09-03T23:21:33;19.10;99.90
46319;DHT22;32042;50.916;2.926;2022-09-03T23:24:06;19.10;99.90
46319;DHT22;32042;50.916;2.926;2022-09-03T23:26:43;19.10;99.90
46319;DHT22;32042;50.916;2.926;2022-09-03T23:29:27;19.20;99.90
46319;DHT22;32042;50.916;2.926;2022-09-03T23:31:56;19.10;99.90
46319;DHT22;32042;50.916;2.926;2022-09-03T23:34:22;19.10;99.90
46319;DHT22;32042;50.916;2.926;2022-09-03T23:39:34;19.10;99.90
46319;DHT22;32042;50.916;2.926;2022-09-03T23:56:02;19.00;99.90
